createdAt,value
2018-11-13T00:00:02.471Z,12.37
2018-11-13T00:01:02.257Z,12.41
2018-11-13T00:02:02.340Z,12.41
2018-11-13T00:03:03.076Z,12.41
2018-11-13T00:04:02.471Z,12.42
2018-11-13T00:05:02.187Z,12.42
2018-11-13T00:06:02.499Z,12.43
2018-11-13T00:07:02.272Z,12.41
2018-11-13T00:08:02.212Z,12.45
2018-11-13T00:09:02.478Z,12.47
2018-11-13T00:10:02.234Z,12.51
2018-11-13T00:11:02.345Z,12.52
2018-11-13T00:12:02.389Z,12.52
2018-11-13T00:13:02.288Z,12.53
2018-11-13T00:14:02.179Z,12.53
2018-11-13T00:15:02.456Z,12.53
2018-11-13T00:16:02.314Z,12.55
2018-11-13T00:17:02.368Z,12.53
2018-11-13T00:18:02.339Z,12.55
2018-11-13T00:19:02.229Z,12.54
2018-11-13T00:20:02.471Z,12.57
2018-11-13T00:21:02.487Z,12.54
2018-11-13T00:22:02.121Z,12.54
2018-11-13T00:23:02.258Z,12.54
2018-11-13T00:24:02.626Z,12.55
2018-11-13T00:25:02.083Z,12.57
2018-11-13T00:26:02.322Z,12.57
2018-11-13T00:27:02.220Z,12.58
2018-11-13T00:28:02.388Z,12.55
2018-11-13T00:29:02.364Z,12.52
2018-11-13T00:30:02.111Z,12.51
2018-11-13T00:31:02.212Z,12.48
2018-11-13T00:32:02.251Z,12.5
2018-11-13T00:33:02.094Z,12.52
2018-11-13T00:34:02.202Z,12.52
2018-11-13T00:35:02.129Z,12.51
2018-11-13T00:36:02.177Z,12.52
2018-11-13T00:37:02.232Z,12.52
2018-11-13T00:38:02.185Z,12.51
2018-11-13T00:39:02.619Z,12.52
2018-11-13T00:40:02.137Z,12.49
2018-11-13T00:41:02.072Z,12.53
2018-11-13T00:42:02.053Z,12.54
2018-11-13T00:43:02.256Z,12.51
2018-11-13T00:44:02.091Z,12.48
2018-11-13T00:45:02.268Z,12.4
2018-11-13T00:46:03.406Z,12.29
2018-11-13T00:47:02.056Z,12.27
2018-11-13T00:48:02.104Z,12.34
2018-11-13T00:49:03.559Z,12.37
2018-11-13T00:50:02.355Z,12.37
2018-11-13T00:51:02.280Z,12.38
2018-11-13T00:52:02.367Z,12.38
2018-11-13T00:53:02.600Z,12.35
2018-11-13T00:54:02.175Z,12.38
2018-11-13T00:55:05.713Z,12.38
2018-11-13T00:56:02.237Z,12.35
2018-11-13T00:57:02.332Z,12.38
2018-11-13T00:58:02.124Z,12.37
2018-11-13T00:59:02.150Z,12.39
2018-11-13T01:00:02.476Z,12.39
2018-11-13T01:01:02.462Z,12.36
2018-11-13T01:02:02.893Z,12.37
2018-11-13T01:03:02.175Z,12.38
2018-11-13T01:04:02.172Z,12.36
2018-11-13T01:05:03.452Z,12.39
2018-11-13T01:06:02.190Z,12.41
2018-11-13T01:07:02.068Z,12.42
2018-11-13T01:08:02.304Z,12.41
2018-11-13T01:09:02.058Z,12.41
2018-11-13T01:10:02.171Z,12.39
2018-11-13T01:11:02.050Z,12.39
2018-11-13T01:12:02.316Z,12.38
2018-11-13T01:13:02.200Z,12.34
2018-11-13T01:14:02.093Z,12.33
2018-11-13T01:15:02.713Z,12.35
2018-11-13T01:16:02.047Z,12.32
2018-11-13T01:17:02.364Z,12.33
2018-11-13T01:18:02.645Z,12.36
2018-11-13T01:19:02.991Z,12.32
2018-11-13T01:20:02.216Z,12.35
2018-11-13T01:21:02.384Z,12.36
2018-11-13T01:22:02.090Z,12.35
2018-11-13T01:23:02.295Z,12.35
2018-11-13T01:24:04.292Z,12.37
2018-11-13T01:25:02.315Z,12.37
2018-11-13T01:26:02.529Z,12.37
2018-11-13T01:27:02.482Z,12.36
2018-11-13T01:28:02.050Z,12.38
2018-11-13T01:29:02.243Z,12.39
2018-11-13T01:30:02.841Z,12.39
2018-11-13T01:31:02.153Z,12.39
2018-11-13T01:32:02.097Z,12.4
2018-11-13T01:33:02.198Z,12.43
2018-11-13T01:34:02.513Z,12.41
2018-11-13T01:35:02.818Z,12.44
2018-11-13T01:36:02.070Z,12.41
2018-11-13T01:37:02.026Z,12.41
2018-11-13T01:38:02.406Z,12.4
2018-11-13T01:39:02.138Z,12.4
2018-11-13T01:40:02.105Z,12.4
2018-11-13T01:41:02.355Z,12.4
2018-11-13T01:42:01.983Z,12.4
2018-11-13T01:43:02.235Z,12.4
2018-11-13T01:44:02.246Z,12.43
2018-11-13T01:45:01.975Z,12.41
2018-11-13T01:46:02.346Z,12.4
2018-11-13T01:47:02.206Z,12.4
2018-11-13T01:48:02.962Z,12.35
2018-11-13T01:49:02.039Z,12.36
2018-11-13T01:50:01.992Z,12.33
2018-11-13T01:51:02.287Z,12.34
2018-11-13T01:52:02.153Z,12.33
2018-11-13T01:53:02.208Z,12.34
2018-11-13T01:54:02.464Z,12.34
2018-11-13T01:55:02.505Z,12.35
2018-11-13T01:56:01.960Z,12.35
2018-11-13T01:57:02.548Z,12.38
2018-11-13T01:58:02.000Z,12.37
2018-11-13T01:59:01.972Z,12.34
2018-11-13T02:00:01.959Z,12.38
2018-11-13T02:01:02.023Z,12.33
2018-11-13T02:02:01.993Z,12.34
2018-11-13T02:03:01.965Z,12.35
2018-11-13T02:04:02.258Z,12.35
2018-11-13T02:05:01.913Z,12.38
2018-11-13T02:06:01.973Z,12.35
2018-11-13T02:07:02.018Z,12.37
2018-11-13T02:08:01.970Z,12.34
2018-11-13T02:09:01.946Z,12.33
2018-11-13T02:10:01.971Z,12.34
2018-11-13T02:11:01.998Z,12.35
2018-11-13T02:12:01.947Z,12.35
2018-11-13T02:13:01.988Z,12.34
2018-11-13T02:14:01.940Z,12.35
2018-11-13T02:15:01.943Z,12.35
2018-11-13T02:16:01.923Z,12.34
2018-11-13T02:17:01.937Z,12.37
2018-11-13T02:18:02.390Z,12.34
2018-11-13T02:19:02.015Z,12.33
2018-11-13T02:20:02.286Z,12.33
2018-11-13T02:21:02.183Z,12.34
2018-11-13T02:22:01.908Z,12.33
2018-11-13T02:23:02.205Z,12.34
2018-11-13T02:24:02.021Z,12.34
2018-11-13T02:25:01.957Z,12.35
2018-11-13T02:26:02.153Z,12.38
2018-11-13T02:27:02.144Z,12.35
2018-11-13T02:28:02.237Z,12.37
2018-11-13T02:29:02.429Z,12.34
2018-11-13T02:30:02.048Z,12.33
2018-11-13T02:31:01.915Z,12.32
2018-11-13T02:32:01.951Z,12.31
2018-11-13T02:33:02.203Z,12.31
2018-11-13T02:34:02.266Z,12.28
2018-11-13T02:35:02.331Z,12.26
2018-11-13T02:36:02.011Z,12.21
2018-11-13T02:37:01.969Z,12.21
2018-11-13T02:38:01.958Z,12.22
2018-11-13T02:39:01.909Z,12.21
2018-11-13T02:40:02.460Z,12.21
2018-11-13T02:41:02.110Z,12.23
2018-11-13T02:42:02.047Z,12.24
2018-11-13T02:43:02.391Z,12.24
2018-11-13T02:44:01.991Z,12.24
2018-11-13T02:45:02.232Z,12.26
2018-11-13T02:46:01.980Z,12.23
2018-11-13T02:47:02.019Z,12.27
2018-11-13T02:48:02.117Z,12.26
2018-11-13T02:49:02.044Z,12.28
2018-11-13T02:50:02.011Z,12.27
2018-11-13T02:51:01.909Z,12.28
2018-11-13T02:52:02.322Z,12.27
2018-11-13T02:53:01.919Z,12.28
2018-11-13T02:54:01.913Z,12.28
2018-11-13T02:55:02.236Z,12.28
2018-11-13T02:56:01.894Z,12.28
2018-11-13T02:57:01.902Z,12.28
2018-11-13T02:58:02.263Z,12.29
2018-11-13T02:59:01.996Z,12.28
2018-11-13T03:00:02.009Z,12.27
2018-11-13T03:01:01.899Z,12.28
2018-11-13T03:02:01.971Z,12.28
2018-11-13T03:03:01.890Z,12.28
2018-11-13T03:04:01.960Z,12.28
2018-11-13T03:05:02.210Z,12.27
2018-11-13T03:06:02.405Z,12.25
2018-11-13T03:07:01.917Z,12.25
2018-11-13T03:08:02.114Z,12.25
2018-11-13T03:09:02.134Z,12.21
2018-11-13T03:10:02.024Z,12.2
2018-11-13T03:11:01.995Z,12.22
2018-11-13T03:12:02.242Z,12.23
2018-11-13T03:13:01.944Z,12.23
2018-11-13T03:14:01.889Z,12.24
2018-11-13T03:15:01.991Z,12.26
2018-11-13T03:16:01.917Z,12.24
2018-11-13T03:17:02.034Z,12.26
2018-11-13T03:18:02.078Z,12.24
2018-11-13T03:19:01.948Z,12.25
2018-11-13T03:20:01.895Z,12.23
2018-11-13T03:21:02.137Z,12.23
2018-11-13T03:22:02.363Z,12.26
2018-11-13T03:23:01.888Z,12.25
2018-11-13T03:24:01.853Z,12.26
2018-11-13T03:25:02.012Z,12.26
2018-11-13T03:26:01.880Z,12.27
2018-11-13T03:27:02.070Z,12.26
2018-11-13T03:28:01.990Z,12.25
2018-11-13T03:29:01.867Z,12.23
2018-11-13T03:30:01.899Z,12.2
2018-11-13T03:31:02.368Z,12.19
2018-11-13T03:32:01.877Z,12.19
2018-11-13T03:33:02.064Z,12.19
2018-11-13T03:34:01.906Z,12.17
2018-11-13T03:35:01.840Z,12.16
2018-11-13T03:36:01.894Z,12.16
2018-11-13T03:37:01.809Z,12.16
2018-11-13T03:38:01.905Z,12.16
2018-11-13T03:39:01.823Z,12.17
2018-11-13T03:40:01.808Z,12.19
2018-11-13T03:41:01.822Z,12.17
2018-11-13T03:42:01.859Z,12.22
2018-11-13T03:43:01.829Z,12.18
2018-11-13T03:44:01.829Z,12.2
2018-11-13T03:45:01.948Z,12.19
2018-11-13T03:46:01.861Z,12.2
2018-11-13T03:47:01.880Z,12.21
2018-11-13T03:48:01.826Z,12.22
2018-11-13T03:49:02.212Z,12.22
2018-11-13T03:50:01.983Z,12.22
2018-11-13T03:51:02.150Z,12.19
2018-11-13T03:52:02.512Z,12.2
2018-11-13T03:53:02.641Z,12.18
2018-11-13T03:54:01.932Z,12.2
2018-11-13T03:55:01.948Z,12.22
2018-11-13T03:56:01.949Z,12.24
2018-11-13T03:57:01.815Z,12.24
2018-11-13T03:58:01.829Z,12.23
2018-11-13T03:59:01.904Z,12.26
2018-11-13T04:00:02.216Z,12.23
2018-11-13T04:01:01.983Z,12.22
2018-11-13T04:02:01.823Z,12.22
2018-11-13T04:03:01.883Z,12.23
2018-11-13T04:04:01.889Z,12.22
2018-11-13T04:05:01.971Z,12.23
2018-11-13T04:06:01.877Z,12.27
2018-11-13T04:07:01.917Z,12.28
2018-11-13T04:08:02.658Z,12.27
2018-11-13T04:09:01.949Z,12.28
2018-11-13T04:10:01.870Z,12.28
2018-11-13T04:11:01.999Z,12.28
2018-11-13T04:12:01.787Z,12.26
2018-11-13T04:13:01.862Z,12.26
2018-11-13T04:14:01.827Z,12.27
2018-11-13T04:15:01.801Z,12.26
2018-11-13T04:16:01.796Z,12.26
2018-11-13T04:17:01.844Z,12.27
2018-11-13T04:18:01.919Z,12.28
2018-11-13T04:19:01.942Z,12.28
2018-11-13T04:20:01.793Z,12.26
2018-11-13T04:21:01.831Z,12.25
2018-11-13T04:22:02.067Z,12.25
2018-11-13T04:23:01.887Z,12.24
2018-11-13T04:24:01.820Z,12.22
2018-11-13T04:25:02.644Z,12.19
2018-11-13T04:26:02.073Z,12.2
2018-11-13T04:27:01.996Z,12.18
2018-11-13T04:28:01.894Z,12.17
2018-11-13T04:29:01.805Z,12.18
2018-11-13T04:30:01.860Z,12.2
2018-11-13T04:31:01.841Z,12.2
2018-11-13T04:32:01.833Z,12.18
2018-11-13T04:33:01.868Z,12.2
2018-11-13T04:34:02.266Z,12.19
2018-11-13T04:35:01.971Z,12.18
2018-11-13T04:36:01.871Z,12.18
2018-11-13T04:37:01.847Z,12.16
2018-11-13T04:38:01.856Z,12.16
2018-11-13T04:39:01.847Z,12.16
2018-11-13T04:40:02.208Z,12.16
2018-11-13T04:41:01.905Z,12.16
2018-11-13T04:42:02.009Z,12.17
2018-11-13T04:43:01.830Z,12.15
2018-11-13T04:44:01.857Z,12.14
2018-11-13T04:45:01.909Z,12.18
2018-11-13T04:46:01.838Z,12.16
2018-11-13T04:47:02.028Z,12.16
2018-11-13T04:48:01.866Z,12.18
2018-11-13T04:49:01.860Z,12.16
2018-11-13T04:50:01.971Z,12.16
2018-11-13T04:51:01.813Z,12.15
2018-11-13T04:52:01.904Z,12.2
2018-11-13T04:53:01.991Z,12.2
2018-11-13T04:54:01.997Z,12.2
2018-11-13T04:55:02.091Z,12.2
2018-11-13T04:56:01.915Z,12.2
2018-11-13T04:57:01.900Z,12.19
2018-11-13T04:58:01.875Z,12.18
2018-11-13T04:59:01.929Z,12.2
2018-11-13T05:00:02.127Z,12.19
2018-11-13T05:01:01.765Z,12.21
2018-11-13T05:02:01.777Z,12.2
2018-11-13T05:03:02.644Z,12.21
2018-11-13T05:04:01.717Z,12.21
2018-11-13T05:05:02.159Z,12.18
2018-11-13T05:06:01.753Z,12.21
2018-11-13T05:07:01.743Z,12.18
2018-11-13T05:08:01.770Z,12.19
2018-11-13T05:09:01.689Z,12.19
2018-11-13T05:10:02.878Z,12.2
2018-11-13T05:11:01.720Z,12.19
2018-11-13T05:12:01.697Z,12.2
2018-11-13T05:13:01.764Z,12.2
2018-11-13T05:14:01.765Z,12.2
2018-11-13T05:15:01.762Z,12.2
2018-11-13T05:16:01.737Z,12.18
2018-11-13T05:17:01.752Z,12.17
2018-11-13T05:18:01.694Z,12.19
2018-11-13T05:19:01.725Z,12.18
2018-11-13T05:20:01.812Z,12.18
2018-11-13T05:21:01.720Z,12.17
2018-11-13T05:22:01.765Z,12.18
2018-11-13T05:23:02.383Z,12.18
2018-11-13T05:24:01.669Z,12.2
2018-11-13T05:25:01.812Z,12.2
2018-11-13T05:26:02.525Z,12.2
2018-11-13T05:27:01.710Z,12.2
2018-11-13T05:28:01.783Z,12.21
2018-11-13T05:29:01.996Z,12.2
2018-11-13T05:30:01.903Z,12.21
2018-11-13T05:31:01.758Z,12.2
2018-11-13T05:32:01.778Z,12.2
2018-11-13T05:33:01.924Z,12.19
2018-11-13T05:34:01.730Z,12.18
2018-11-13T05:35:01.887Z,12.15
2018-11-13T05:36:01.792Z,12.17
2018-11-13T05:37:01.704Z,12.15
2018-11-13T05:38:01.868Z,12.14
2018-11-13T05:39:01.735Z,12.16
2018-11-13T05:40:01.967Z,12.15
2018-11-13T05:41:01.841Z,12.16
2018-11-13T05:42:01.717Z,12.15
2018-11-13T05:43:01.670Z,12.15
2018-11-13T05:44:01.829Z,12.15
2018-11-13T05:45:01.926Z,12.16
2018-11-13T05:46:01.653Z,12.15
2018-11-13T05:47:02.252Z,12.17
2018-11-13T05:48:01.740Z,12.16
2018-11-13T05:49:01.922Z,12.15
2018-11-13T05:50:01.814Z,12.16
2018-11-13T05:51:01.745Z,12.16
2018-11-13T05:52:01.686Z,12.2
2018-11-13T05:53:01.721Z,12.2
2018-11-13T05:54:01.621Z,12.2
2018-11-13T05:55:01.677Z,12.18
2018-11-13T05:56:01.704Z,12.2
2018-11-13T05:57:01.890Z,12.21
2018-11-13T05:58:01.766Z,12.19
2018-11-13T05:59:01.871Z,12.22
2018-11-13T06:00:02.134Z,12.21
2018-11-13T06:01:01.718Z,12.22
2018-11-13T06:02:02.006Z,12.21
2018-11-13T06:03:01.662Z,12.21
2018-11-13T06:04:01.620Z,12.22
2018-11-13T06:05:01.869Z,12.2
2018-11-13T06:06:01.673Z,12.21
2018-11-13T06:07:01.676Z,12.21
2018-11-13T06:08:01.973Z,12.22
2018-11-13T06:09:01.761Z,12.22
2018-11-13T06:10:01.639Z,12.22
2018-11-13T06:11:02.157Z,12.23
2018-11-13T06:12:01.696Z,12.26
2018-11-13T06:13:01.667Z,12.25
2018-11-13T06:14:02.633Z,12.21
2018-11-13T06:15:01.692Z,12.21
2018-11-13T06:16:01.668Z,12.21
2018-11-13T06:17:01.935Z,12.21
2018-11-13T06:18:02.296Z,12.21
2018-11-13T06:19:01.666Z,12.21
2018-11-13T06:20:01.853Z,12.21
2018-11-13T06:21:01.668Z,12.22
2018-11-13T06:22:01.884Z,12.22
2018-11-13T06:23:03.259Z,12.19
2018-11-13T06:24:01.732Z,12.19
2018-11-13T06:25:01.813Z,12.21
2018-11-13T06:26:01.910Z,12.21
2018-11-13T06:27:01.599Z,12.2
2018-11-13T06:28:01.962Z,12.2
2018-11-13T06:29:01.677Z,12.21
2018-11-13T06:30:01.680Z,12.2
2018-11-13T06:31:01.825Z,12.2
2018-11-13T06:32:01.698Z,12.2
2018-11-13T06:33:01.722Z,12.22
2018-11-13T06:34:01.607Z,12.24
2018-11-13T06:35:01.619Z,12.21
2018-11-13T06:36:02.251Z,12.2
2018-11-13T06:37:01.618Z,12.19
2018-11-13T06:38:01.846Z,12.2
2018-11-13T06:39:01.889Z,12.22
2018-11-13T06:40:01.601Z,12.22
2018-11-13T06:41:01.595Z,12.21
2018-11-13T06:42:01.601Z,12.21
2018-11-13T06:43:02.066Z,12.22
2018-11-13T06:44:01.612Z,12.2
2018-11-13T06:45:01.688Z,12.2
2018-11-13T06:46:01.776Z,12.21
2018-11-13T06:47:01.582Z,12.2
2018-11-13T06:48:01.612Z,12.23
2018-11-13T06:49:02.281Z,12.2
2018-11-13T06:50:01.582Z,12.2
2018-11-13T06:51:01.587Z,12.19
2018-11-13T06:52:01.879Z,12.22
2018-11-13T06:53:01.554Z,12.2
2018-11-13T06:54:01.568Z,12.22
2018-11-13T06:55:01.585Z,12.22
2018-11-13T06:56:01.556Z,12.25
2018-11-13T06:57:01.793Z,12.27
2018-11-13T06:58:01.557Z,12.3
2018-11-13T06:59:01.537Z,12.31
2018-11-13T07:00:01.767Z,12.31
2018-11-13T07:01:01.843Z,12.3
2018-11-13T07:02:01.594Z,12.26
2018-11-13T07:03:01.631Z,12.26
2018-11-13T07:04:01.572Z,12.24
2018-11-13T07:05:02.790Z,12.25
2018-11-13T07:06:01.577Z,12.25
2018-11-13T07:07:02.190Z,12.24
2018-11-13T07:08:01.668Z,12.23
2018-11-13T07:09:01.576Z,12.21
2018-11-13T07:10:01.614Z,12.25
2018-11-13T07:11:02.047Z,12.25
2018-11-13T07:12:01.757Z,12.26
2018-11-13T07:13:01.690Z,12.23
2018-11-13T07:14:01.706Z,12.2
2018-11-13T07:15:01.718Z,12.19
2018-11-13T07:16:01.761Z,12.2
2018-11-13T07:17:01.547Z,12.19
2018-11-13T07:18:02.001Z,12.2
2018-11-13T07:19:01.530Z,12.19
2018-11-13T07:20:01.580Z,12.18
2018-11-13T07:21:01.647Z,12.18
2018-11-13T07:22:01.584Z,12.2
2018-11-13T07:23:01.611Z,12.2
2018-11-13T07:24:01.711Z,12.24
2018-11-13T07:25:01.893Z,12.23
2018-11-13T07:26:01.557Z,12.21
2018-11-13T07:27:02.319Z,12.21
2018-11-13T07:28:03.185Z,12.2
2018-11-13T07:29:01.598Z,12.2
2018-11-13T07:30:01.740Z,12.19
2018-11-13T07:31:01.764Z,12.2
2018-11-13T07:32:01.751Z,12.19
2018-11-13T07:33:01.741Z,12.2
2018-11-13T07:34:01.689Z,12.2
2018-11-13T07:35:01.902Z,12.19
2018-11-13T07:36:01.762Z,12.2
2018-11-13T07:37:01.544Z,12.2
2018-11-13T07:38:01.705Z,12.19
2018-11-13T07:39:01.582Z,12.2
2018-11-13T07:40:01.551Z,12.21
2018-11-13T07:41:02.485Z,12.2
2018-11-13T07:42:01.656Z,12.2
2018-11-13T07:43:01.546Z,12.2
2018-11-13T07:44:01.962Z,12.2
2018-11-13T07:45:01.857Z,12.19
2018-11-13T07:46:01.542Z,12.19
2018-11-13T07:47:02.706Z,12.15
2018-11-13T07:48:02.683Z,12.15
2018-11-13T07:49:01.557Z,12.16
2018-11-13T07:50:01.671Z,12.17
2018-11-13T07:51:01.946Z,12.15
2018-11-13T07:52:01.607Z,12.14
2018-11-13T07:53:01.713Z,12.15
2018-11-13T07:54:02.654Z,12.16
2018-11-13T07:55:01.727Z,12.14
2018-11-13T07:56:01.582Z,12.14
2018-11-13T07:57:01.657Z,12.14
2018-11-13T07:58:01.554Z,12.12
2018-11-13T07:59:01.526Z,12.13
2018-11-13T08:00:01.878Z,12.11
2018-11-13T08:01:01.754Z,12.13
2018-11-13T08:02:01.503Z,12.1
2018-11-13T08:03:01.480Z,12.13
2018-11-13T08:04:01.524Z,12.1
2018-11-13T08:05:01.802Z,12.11
2018-11-13T08:06:02.109Z,12.09
2018-11-13T08:07:01.585Z,12.1
2018-11-13T08:08:01.548Z,12.12
2018-11-13T08:09:01.569Z,12.1
2018-11-13T08:10:01.414Z,12.1
2018-11-13T08:11:01.538Z,12.12
2018-11-13T08:12:02.957Z,12.1
2018-11-13T08:13:03.123Z,12.09
2018-11-13T08:14:01.588Z,12.08
2018-11-13T08:15:01.525Z,12.08
2018-11-13T08:16:01.682Z,12.07
2018-11-13T08:17:01.500Z,12.09
2018-11-13T08:18:01.477Z,12.07
2018-11-13T08:19:01.513Z,12.05
2018-11-13T08:20:01.461Z,12.03
2018-11-13T08:21:01.845Z,12.02
2018-11-13T08:22:02.498Z,11.98
2018-11-13T08:23:01.519Z,12
2018-11-13T08:24:01.408Z,11.99
2018-11-13T08:25:01.600Z,12.03
2018-11-13T08:26:01.410Z,12.03
2018-11-13T08:27:02.477Z,12.01
2018-11-13T08:28:02.063Z,11.98
2018-11-13T08:29:03.950Z,11.96
2018-11-13T08:30:01.415Z,11.95
2018-11-13T08:31:01.441Z,11.96
2018-11-13T08:32:01.505Z,11.95
2018-11-13T08:33:01.521Z,11.91
2018-11-13T08:34:01.851Z,11.9
2018-11-13T08:35:03.067Z,11.92
2018-11-13T08:36:01.404Z,11.95
2018-11-13T08:37:01.461Z,11.91
2018-11-13T08:38:01.590Z,11.91
2018-11-13T08:39:01.484Z,11.9
2018-11-13T08:40:01.409Z,11.93
2018-11-13T08:41:01.427Z,11.9
2018-11-13T08:42:01.506Z,11.91
2018-11-13T08:43:01.564Z,11.91
2018-11-13T08:44:02.599Z,11.91
2018-11-13T08:45:01.432Z,11.94
2018-11-13T08:46:01.366Z,11.92
2018-11-13T08:47:01.422Z,11.89
2018-11-13T08:48:02.242Z,11.9
2018-11-13T08:49:01.546Z,11.89
2018-11-13T08:50:01.479Z,11.89
2018-11-13T08:51:01.513Z,11.84
2018-11-13T08:52:01.772Z,11.83
2018-11-13T08:53:01.460Z,11.88
2018-11-13T08:54:01.403Z,11.85
2018-11-13T08:55:01.794Z,11.84
2018-11-13T08:56:01.671Z,11.85
2018-11-13T08:57:01.369Z,11.84
2018-11-13T08:58:01.363Z,11.83
2018-11-13T08:59:03.206Z,11.84
2018-11-13T09:00:01.426Z,11.84
2018-11-13T09:01:01.452Z,11.82
2018-11-13T09:02:01.588Z,11.83
2018-11-13T09:03:01.544Z,11.83
2018-11-13T09:04:01.661Z,11.83
2018-11-13T09:05:02.634Z,11.85
2018-11-13T09:06:02.003Z,11.86
2018-11-13T09:07:01.632Z,11.85
2018-11-13T09:08:01.429Z,11.88
2018-11-13T09:09:01.524Z,11.88
2018-11-13T09:10:01.374Z,11.87
2018-11-13T09:11:01.645Z,11.89
2018-11-13T09:12:04.072Z,11.88
2018-11-13T09:13:01.646Z,11.87
2018-11-13T09:14:01.375Z,11.85
2018-11-13T09:15:01.368Z,11.89
2018-11-13T09:16:01.669Z,11.87
2018-11-13T09:17:01.635Z,11.91
2018-11-13T09:18:02.311Z,11.91
2018-11-13T09:19:02.488Z,11.9
2018-11-13T09:20:01.708Z,11.95
2018-11-13T09:21:01.716Z,11.95
2018-11-13T09:22:01.574Z,11.95
2018-11-13T09:23:01.487Z,11.95
2018-11-13T09:24:01.430Z,11.96
2018-11-13T09:25:01.337Z,11.96
2018-11-13T09:26:01.382Z,11.97
2018-11-13T09:27:01.357Z,11.96
2018-11-13T09:28:01.392Z,11.96
2018-11-13T09:29:01.361Z,11.96
2018-11-13T09:30:03.183Z,11.96
2018-11-13T09:31:04.031Z,11.97
2018-11-13T09:32:01.423Z,12
2018-11-13T09:33:02.208Z,12.01
2018-11-13T09:34:01.501Z,11.98
2018-11-13T09:35:01.775Z,12.01
2018-11-13T09:36:01.466Z,11.97
2018-11-13T09:37:01.642Z,11.96
2018-11-13T09:38:01.438Z,12
2018-11-13T09:39:01.360Z,12.01
2018-11-13T09:40:01.670Z,12.01
2018-11-13T09:41:01.399Z,12.02
2018-11-13T09:42:01.579Z,11.99
2018-11-13T09:43:01.425Z,11.96
2018-11-13T09:44:01.625Z,11.97
2018-11-13T09:45:02.848Z,12
2018-11-13T09:46:02.670Z,12
2018-11-13T09:47:01.324Z,12
2018-11-13T09:48:01.381Z,11.99
2018-11-13T09:49:01.367Z,11.98
2018-11-13T09:50:01.422Z,11.97
2018-11-13T09:51:01.402Z,11.98
2018-11-13T09:52:01.326Z,12.01
2018-11-13T09:53:01.329Z,11.99
2018-11-13T09:54:01.341Z,11.97
2018-11-13T09:55:01.374Z,11.99
2018-11-13T09:56:01.402Z,12
2018-11-13T09:57:01.482Z,11.98
2018-11-13T09:58:01.330Z,11.96
2018-11-13T09:59:02.390Z,11.99
2018-11-13T10:00:02.608Z,11.97
2018-11-13T10:01:04.739Z,11.98
2018-11-13T10:02:07.615Z,12
2018-11-13T10:03:10.506Z,11.99
2018-11-13T10:04:09.337Z,11.97
2018-11-13T10:05:10.321Z,11.98
2018-11-13T10:06:02.567Z,12
2018-11-13T10:07:01.738Z,12
2018-11-13T10:08:01.628Z,12.02
2018-11-13T10:09:01.328Z,12.02
2018-11-13T10:10:01.820Z,12.03
2018-11-13T10:11:01.507Z,12.02
2018-11-13T10:12:01.387Z,12.01
2018-11-13T10:13:01.646Z,12.02
2018-11-13T10:14:01.738Z,12.04
2018-11-13T10:15:01.463Z,12.06
2018-11-13T10:16:01.331Z,12.07
2018-11-13T10:17:01.720Z,12.05
2018-11-13T10:18:03.646Z,12.07
2018-11-13T10:19:01.562Z,12.08
2018-11-13T10:20:01.284Z,12.09
2018-11-13T10:21:01.324Z,12.08
2018-11-13T10:22:01.403Z,12.09
2018-11-13T10:23:01.629Z,12.13
2018-11-13T10:24:01.397Z,12.11
2018-11-13T10:25:01.443Z,12.15
2018-11-13T10:26:01.324Z,12.15
2018-11-13T10:27:02.149Z,12.19
2018-11-13T10:28:01.941Z,12.19
2018-11-13T10:29:01.450Z,12.2
2018-11-13T10:30:02.555Z,12.21
2018-11-13T10:31:01.364Z,12.22
2018-11-13T10:32:01.271Z,12.25
2018-11-13T10:33:01.565Z,12.26
2018-11-13T10:34:01.708Z,12.27
2018-11-13T10:35:01.413Z,12.27
2018-11-13T10:36:01.360Z,12.29
2018-11-13T10:37:02.091Z,12.3
2018-11-13T10:38:01.419Z,12.28
2018-11-13T10:39:01.605Z,12.29
2018-11-13T10:40:02.031Z,12.3
2018-11-13T10:41:02.533Z,12.32
2018-11-13T10:42:01.354Z,12.29
2018-11-13T10:43:01.347Z,12.29
2018-11-13T10:44:01.337Z,12.28
2018-11-13T10:45:01.276Z,12.28
2018-11-13T10:46:01.291Z,12.26
2018-11-13T10:47:01.323Z,12.26
2018-11-13T10:48:01.387Z,12.28
2018-11-13T10:49:01.921Z,12.28
2018-11-13T10:50:01.816Z,12.3
2018-11-13T10:51:01.387Z,12.27
2018-11-13T10:52:01.415Z,12.27
2018-11-13T10:53:01.281Z,12.27
2018-11-13T10:54:01.273Z,12.27
2018-11-13T10:55:01.361Z,12.26
2018-11-13T10:56:01.342Z,12.27
2018-11-13T10:57:01.825Z,12.26
2018-11-13T10:58:01.379Z,12.25
2018-11-13T10:59:01.310Z,12.26
2018-11-13T11:00:01.385Z,12.24
2018-11-13T11:01:01.508Z,12.23
2018-11-13T11:02:01.544Z,12.23
2018-11-13T11:03:03.239Z,12.2
2018-11-13T11:04:01.505Z,12.22
2018-11-13T11:05:01.378Z,12.22
2018-11-13T11:07:01.601Z,12.25
2018-11-13T11:08:01.321Z,12.23
2018-11-13T11:09:01.233Z,12.25
2018-11-13T11:10:01.752Z,12.23
2018-11-13T11:11:01.541Z,12.27
2018-11-13T11:12:01.257Z,12.26
2018-11-13T11:13:03.715Z,12.26
2018-11-13T11:14:04.536Z,12.31
2018-11-13T11:15:01.319Z,12.36
2018-11-13T11:16:01.549Z,12.39
2018-11-13T11:17:01.320Z,12.4
2018-11-13T11:18:01.927Z,12.45
2018-11-13T11:19:03.063Z,12.49
2018-11-13T11:20:01.260Z,12.58
2018-11-13T11:21:01.271Z,12.68
2018-11-13T11:22:01.224Z,12.71
2018-11-13T11:23:01.876Z,12.75
2018-11-13T11:24:02.041Z,12.76
2018-11-13T11:25:01.690Z,12.77
2018-11-13T11:26:01.279Z,12.77
2018-11-13T11:27:01.203Z,12.75
2018-11-13T11:28:01.648Z,12.74
2018-11-13T11:29:01.272Z,12.75
2018-11-13T11:30:01.280Z,12.74
2018-11-13T11:31:02.084Z,12.7
2018-11-13T11:32:01.155Z,12.69
2018-11-13T11:33:01.260Z,12.7
2018-11-13T11:34:01.284Z,12.66
2018-11-13T11:35:01.456Z,12.66
2018-11-13T11:36:01.493Z,12.7
2018-11-13T11:37:01.238Z,12.69
2018-11-13T11:38:01.268Z,12.7
2018-11-13T11:39:03.710Z,12.7
2018-11-13T11:40:01.213Z,12.68
2018-11-13T11:41:01.278Z,12.69
2018-11-13T11:42:01.190Z,12.68
2018-11-13T11:43:01.296Z,12.65
2018-11-13T11:44:01.212Z,12.65
2018-11-13T11:45:01.652Z,12.68
2018-11-13T11:47:01.776Z,12.66
2018-11-13T11:48:01.160Z,12.69
2018-11-13T11:49:01.324Z,12.7
2018-11-13T11:50:01.327Z,12.68
2018-11-13T11:51:01.763Z,12.71
2018-11-13T11:52:01.834Z,12.71
2018-11-13T11:53:01.186Z,12.77
2018-11-13T11:54:02.851Z,12.74
2018-11-13T11:55:01.393Z,12.75
2018-11-13T11:56:01.966Z,12.77
2018-11-13T11:57:01.287Z,12.76
2018-11-13T11:58:01.561Z,12.76
2018-11-13T11:59:01.383Z,12.75
2018-11-13T12:00:01.636Z,12.75
2018-11-13T12:01:01.553Z,12.76
2018-11-13T12:02:01.594Z,12.76
2018-11-13T12:03:01.342Z,12.79
2018-11-13T12:04:01.545Z,12.76
2018-11-13T12:05:01.259Z,12.79
2018-11-13T12:06:01.172Z,12.77
2018-11-13T12:07:01.117Z,12.8
2018-11-13T12:08:01.228Z,12.81
2018-11-13T12:09:01.225Z,12.81
2018-11-13T12:10:01.498Z,12.85
2018-11-13T12:11:01.158Z,12.83
2018-11-13T12:12:01.510Z,12.85
2018-11-13T12:13:01.269Z,12.83
2018-11-13T12:14:01.510Z,12.84
2018-11-13T12:15:01.248Z,12.86
2018-11-13T12:16:01.205Z,12.87
2018-11-13T12:17:01.407Z,12.88
2018-11-13T12:18:01.114Z,12.87
2018-11-13T12:19:02.934Z,12.87
2018-11-13T12:20:01.265Z,12.88
2018-11-13T12:21:01.649Z,12.88
2018-11-13T12:22:01.333Z,12.88
2018-11-13T12:23:01.130Z,12.87
2018-11-13T12:24:01.302Z,12.87
2018-11-13T12:25:01.223Z,12.86
2018-11-13T12:26:01.416Z,12.87
2018-11-13T12:27:01.144Z,12.89
2018-11-13T12:28:01.429Z,12.92
2018-11-13T12:29:01.229Z,12.9
2018-11-13T12:30:01.186Z,12.9
2018-11-13T12:31:01.373Z,12.93
2018-11-13T12:32:01.485Z,12.92
2018-11-13T12:33:01.431Z,12.95
2018-11-13T12:34:01.383Z,12.95
2018-11-13T12:35:01.234Z,12.96
2018-11-13T12:36:01.257Z,12.95
2018-11-13T12:37:01.244Z,12.97
2018-11-13T12:38:01.376Z,12.95
2018-11-13T12:39:01.245Z,12.97
2018-11-13T12:40:01.166Z,12.95
2018-11-13T12:41:02.900Z,12.95
2018-11-13T12:42:01.776Z,12.95
2018-11-13T12:43:01.140Z,12.94
2018-11-13T12:44:01.209Z,12.95
2018-11-13T12:45:01.349Z,12.96
2018-11-13T12:46:01.504Z,12.95
2018-11-13T12:47:01.226Z,12.98
2018-11-13T12:48:01.210Z,12.99
2018-11-13T12:49:03.651Z,13
2018-11-13T12:50:01.623Z,13
2018-11-13T12:51:01.418Z,13.03
2018-11-13T12:52:01.382Z,13.02
2018-11-13T12:53:01.054Z,13.06
2018-11-13T12:54:01.208Z,13.04
2018-11-13T12:55:01.154Z,13.07
2018-11-13T12:56:02.232Z,13.07
2018-11-13T12:57:01.106Z,13.07
2018-11-13T12:58:01.080Z,13.07
2018-11-13T12:59:01.083Z,13.05